METAR luchtvaart weer gegevens      EFOU Oulu Airport
Temperatuur
64°F Temperatuur
63°F Dauwpunt
94% Vochtigheid



Wind
8 MPH
13 KM/U
4 M/S
7 KTS



170°
Z
Huidig weer

Lichte Buien, Regen Lichte Buien, Regen
Luchtdruk 1009.92 (hPa) - 29.82 (inHg)
Zicht 6.2 (mijl) - 10 (km)
Vliegveld
Vliegveld code EFOU

Locatie : Oulu Airport
Afstand: 83 (mi)

Metar:
EFOU 171950Z AUTO 17007KT 9999 -SHRA BKN006 18/17 Q1010

Tijd: 17-08-2022 22:50 EEST